Time;durP1;ratioP1;P1;durP2;ratioP2;P2;SDS_P1;SDS_P2;PMS_P1;PMS_P2;Temp;Humidity;BMP_temperature;BMP_pressure;BME280_temperature;BME280_humidity;BME280_pressure;Samples;Min_cycle;Max_cycle;Signal;HPM_P1;HPM_P2
2022/03/05 00:00:43;;;;;;;42.38;19.90;;;;;;;2.52;72.23;100517.25;5095698;28;20054;-76
2022/03/05 00:03:13;;;;;;;41.88;20.77;;;;;;;2.71;71.15;100515.06;5114321;28;20044;-75
2022/03/05 00:05:42;;;;;;;39.90;19.20;;;;;;;2.73;71.12;100513.25;5096046;28;20104;-76
2022/03/05 00:08:11;;;;;;;37.47;20.25;;;;;;;2.60;71.38;100517.03;5113888;28;20047;-75
2022/03/05 00:10:40;;;;;;;37.38;20.42;;;;;;;2.42;72.73;100514.88;5113937;28;20431;-74
2022/03/05 00:13:08;;;;;;;38.00;20.48;;;;;;;2.45;72.21;100514.78;5096142;28;20101;-74
2022/03/05 00:15:37;;;;;;;35.80;19.60;;;;;;;2.59;71.16;100504.78;5113460;28;20048;-75
2022/03/05 00:18:05;;;;;;;38.88;19.65;;;;;;;2.44;71.64;100508.66;5113912;28;20448;-74
2022/03/05 00:20:34;;;;;;;38.10;19.85;;;;;;;2.27;72.70;100503.75;5095314;28;20052;-75
2022/03/05 00:23:02;;;;;;;39.92;20.13;;;;;;;2.54;71.75;100501.41;5113962;28;20092;-76
2022/03/05 00:25:32;;;;;;;37.38;19.77;;;;;;;2.56;71.65;100499.59;5113432;28;20049;-74
2022/03/05 00:28:00;;;;;;;38.10;20.10;;;;;;;2.39;72.42;100507.88;5095538;28;20044;-74
2022/03/05 00:30:28;;;;;;;36.72;19.23;;;;;;;2.32;72.83;100505.41;5113652;28;20113;-74
2022/03/05 00:32:57;;;;;;;40.28;20.00;;;;;;;2.46;72.50;100498.09;5112889;28;20044;-73
2022/03/05 00:35:25;;;;;;;38.33;19.95;;;;;;;2.51;71.37;100494.44;5113509;28;20431;-74
2022/03/05 00:37:54;;;;;;;37.88;20.23;;;;;;;2.57;71.25;100496.91;5113112;28;20070;-74
2022/03/05 00:40:22;;;;;;;42.00;19.77;;;;;;;2.60;70.99;100498.59;5113566;28;20039;-74
2022/03/05 00:42:51;;;;;;;41.22;21.38;;;;;;;2.64;71.00;100491.53;5113340;28;20050;-74
2022/03/05 00:45:22;;;;;;;41.13;21.13;;;;;;;2.50;71.92;100478.66;5113332;28;20511;-75
2022/03/05 00:47:53;;;;;;;;;;;;;;;2.83;70.93;100493.66;5113701;28;20051;-76
2022/03/05 00:50:21;;;;;;;35.60;18.48;;;;;;;2.67;71.16;100487.03;5113589;28;20316;-75
2022/03/05 00:52:49;;;;;;;40.45;19.67;;;;;;;2.63;71.66;100485.38;5113247;28;20089;-76
2022/03/05 00:55:18;;;;;;;36.95;20.50;;;;;;;2.45;73.19;100488.44;5113871;28;20075;-75
2022/03/05 00:57:46;;;;;;;40.63;21.05;;;;;;;2.32;74.16;100487.88;5113305;28;20075;-76
2022/03/05 01:00:16;;;;;;;39.20;22.20;;;;;;;2.27;75.11;100487.09;5113586;28;20047;-74
2022/03/05 01:02:44;;;;;;;41.80;21.63;;;;;;;2.22;76.04;100486.31;5113243;28;20050;-75
2022/03/05 01:05:13;;;;;;;41.95;22.00;;;;;;;2.29;76.40;100483.53;5113135;28;20055;-74
2022/03/05 01:07:41;;;;;;;37.75;20.20;;;;;;;2.39;75.40;100475.41;5113068;28;20050;-74
2022/03/05 01:10:10;;;;;;;41.08;21.02;;;;;;;2.44;74.69;100482.31;5113409;28;20063;-74
2022/03/05 01:12:38;;;;;;;39.25;20.98;;;;;;;2.45;75.42;100483.19;5113059;28;20067;-77
2022/03/05 01:15:09;;;;;;;44.78;22.25;;;;;;;2.40;75.84;100482.41;5113332;28;20050;-74
2022/03/05 01:17:39;;;;;;;45.20;22.88;;;;;;;2.43;76.63;100480.59;5113353;28;20050;-73
2022/03/05 01:20:08;;;;;;;45.60;24.13;;;;;;;2.46;76.80;100484.91;5095063;28;20059;-73
2022/03/05 01:22:37;;;;;;;44.20;21.58;;;;;;;2.24;77.44;100480.16;5113601;28;20126;-74
2022/03/05 01:25:06;;;;;;;42.70;22.00;;;;;;;2.31;77.41;100480.84;5113522;28;20044;-76
2022/03/05 01:27:34;;;;;;;42.05;21.27;;;;;;;2.37;77.06;100482.50;5113043;28;20404;-76
2022/03/05 01:30:03;;;;;;;39.17;20.40;;;;;;;2.24;77.81;100477.50;5113015;28;20612;-76
2022/03/05 01:32:32;;;;;;;42.63;22.50;;;;;;;2.12;79.25;100493.56;5113150;28;20036;-76
2022/03/05 01:35:02;;;;;;;38.63;21.10;;;;;;;2.18;79.10;100487.31;5112910;28;20534;-76
2022/03/05 01:37:30;;;;;;;42.03;21.27;;;;;;;2.12;79.35;100488.28;5113095;28;20066;-76
2022/03/05 01:39:59;;;;;;;40.92;21.02;;;;;;;1.98;80.64;100485.09;5112873;28;20042;-76
2022/03/05 01:42:27;;;;;;;40.50;22.35;;;;;;;1.84;81.96;100474.03;5112961;28;20515;-76
2022/03/05 01:44:56;;;;;;;41.13;21.95;;;;;;;1.90;82.19;100484.41;5113672;28;20043;-75
2022/03/05 01:47:24;;;;;;;45.13;22.58;;;;;;;1.80;83.61;100496.88;5116554;28;20399;-75
2022/03/05 01:49:53;;;;;;;43.13;22.95;;;;;;;1.68;84.69;100486.63;5116234;28;20047;-77
2022/03/05 01:52:23;;;;;;;44.72;22.27;;;;;;;1.78;84.39;100493.41;5116758;28;20051;-77
2022/03/05 01:54:51;;;;;;;46.10;22.00;;;;;;;1.74;84.88;100499.66;5116845;28;20050;-77
2022/03/05 01:57:19;;;;;;;44.95;22.50;;;;;;;1.68;86.68;100487.47;5117282;28;20487;-77
2022/03/05 01:59:49;;;;;;;45.92;23.70;;;;;;;1.64;86.95;100493.72;5116202;28;20050;-77
2022/03/05 02:02:18;;;;;;;46.30;23.10;;;;;;;1.62;87.54;100497.25;5116750;28;20048;-76
2022/03/05 02:04:47;;;;;;;48.38;23.55;;;;;;;1.57;88.06;100499.97;5115837;28;20044;-77
2022/03/05 02:07:15;;;;;;;43.38;22.70;;;;;;;1.50;89.48;100500.13;5116164;28;20073;-76
2022/03/05 02:09:45;;;;;;;46.35;23.40;;;;;;;1.22;94.79;100494.50;5116055;28;20047;-75
2022/03/05 02:12:13;;;;;;;47.20;23.90;;;;;;;1.34;94.17;100502.16;5116401;28;20122;-75
2022/03/05 02:14:41;;;;;;;49.22;24.42;;;;;;;1.28;94.37;100502.28;5116082;28;20052;-77
2022/03/05 02:17:10;;;;;;;53.15;25.65;;;;;;;1.25;94.91;100495.31;5116452;28;20039;-77
2022/03/05 02:19:39;;;;;;;47.03;24.23;;;;;;;1.33;94.41;100495.16;5116059;28;20142;-78
2022/03/05 02:22:10;;;;;;;49.28;24.60;;;;;;;1.27;95.65;100505.81;5115931;28;20126;-75
2022/03/05 02:24:39;;;;;;;50.92;25.73;;;;;;;1.13;97.16;100504.28;5097910;28;20043;-75
2022/03/05 02:27:10;;;;;;;48.83;25.08;;;;;;;1.11;97.17;100510.47;5116299;28;20050;-76
2022/03/05 02:29:39;;;;;;;49.88;23.98;;;;;;;1.34;95.79;100512.66;5115808;28;20070;-76
2022/03/05 02:32:08;;;;;;;51.83;24.98;;;;;;;1.15;96.53;100502.50;5115859;28;20040;-77
2022/03/05 02:34:36;;;;;;;47.03;24.67;;;;;;;1.03;98.45;100507.97;5097755;28;20135;-77
2022/03/05 02:37:05;;;;;;;50.38;25.33;;;;;;;1.11;97.74;100498.19;5115628;28;20119;-77
2022/03/05 02:39:34;;;;;;;47.40;24.50;;;;;;;1.22;96.99;100502.38;5115606;28;20096;-78
2022/03/05 02:42:03;;;;;;;51.38;25.30;;;;;;;1.32;95.31;100504.81;5115628;28;20075;-78
2022/03/05 02:44:32;;;;;;;50.33;25.40;;;;;;;1.19;95.83;100516.47;5115846;28;20051;-77
2022/03/05 02:47:00;;;;;;;49.53;25.52;;;;;;;1.08;97.02;100511.41;5115193;28;20050;-76
2022/03/05 02:49:28;;;;;;;45.90;24.85;;;;;;;1.24;96.15;100511.09;5115423;28;20039;-77
2022/03/05 02:51:57;;;;;;;49.88;24.48;;;;;;;1.17;96.89;100514.75;5115377;28;20048;-77
2022/03/05 02:54:26;;;;;;;53.72;26.75;;;;;;;1.14;98.24;100510.41;5115919;28;20456;-76
2022/03/05 02:56:55;;;;;;;50.22;25.60;;;;;;;1.36;96.48;100513.53;5114019;28;20051;-77
2022/03/05 02:59:25;;;;;;;54.42;25.70;;;;;;;1.16;97.88;100513.88;5115652;28;20093;-77
2022/03/05 03:01:53;;;;;;;56.00;25.98;;;;;;;1.26;97.59;100507.56;5115603;28;20036;-77
2022/03/05 03:04:22;;;;;;;51.38;24.75;;;;;;;1.35;96.53;100514.41;5115092;28;20058;-77
2022/03/05 03:06:51;;;;;;;53.72;26.88;;;;;;;1.31;96.58;100508.34;5115168;28;20044;-77
2022/03/05 03:09:19;;;;;;;51.67;25.98;;;;;;;1.35;96.18;100514.41;5115198;28;20130;-76
2022/03/05 03:11:47;;;;;;;52.17;26.33;;;;;;;1.36;96.08;100509.16;5114986;28;20122;-77
2022/03/05 03:14:19;;;;;;;53.63;26.08;;;;;;;1.19;96.70;100507.72;5115330;28;20043;-77
2022/03/05 03:16:47;;;;;;;49.15;25.40;;;;;;;1.29;95.82;100510.13;5096928;28;20048;-78
2022/03/05 03:19:16;;;;;;;48.72;24.45;;;;;;;1.23;96.26;100512.00;5114649;28;20493;-74
2022/03/05 03:21:44;;;;;;;48.88;25.08;;;;;;;1.07;96.25;100504.41;5114865;28;20070;-76
2022/03/05 03:24:12;;;;;;;48.50;25.67;;;;;;;1.25;96.10;100512.84;5114979;28;20054;-76
2022/03/05 03:26:40;;;;;;;51.13;25.10;;;;;;;1.31;94.97;100512.72;5114894;28;20100;-76
2022/03/05 03:29:10;;;;;;;48.95;24.10;;;;;;;1.41;94.24;100511.66;5114346;28;20044;-77
2022/03/05 03:31:40;;;;;;;46.90;24.65;;;;;;;1.44;93.13;100514.22;5114912;28;20108;-77
2022/03/05 03:34:08;;;;;;;49.90;24.52;;;;;;;1.25;95.18;100513.69;5096149;28;20054;-76
2022/03/05 03:36:37;;;;;;;49.53;24.95;;;;;;;1.21;96.37;100516.44;5114761;28;20043;-79
2022/03/05 03:39:05;;;;;;;47.33;24.58;;;;;;;1.23;96.63;100514.63;5114434;28;20484;-77
2022/03/05 03:41:33;;;;;;;53.72;25.42;;;;;;;1.48;95.04;100518.56;5114761;28;20048;-77
2022/03/05 03:44:06;;;;;;;51.78;25.60;;;;;;;1.56;93.81;100514.03;5114357;28;20044;-77
2022/03/05 03:46:35;;;;;;;47.72;25.27;;;;;;;1.44;94.18;100516.84;5114279;28;20047;-76
2022/03/05 03:49:05;;;;;;;51.75;26.20;;;;;;;1.38;94.75;100515.22;5113894;28;20043;-76
2022/03/05 03:51:33;;;;;;;50.83;25.80;;;;;;;1.42;94.70;100516.03;5114514;28;20046;-76
2022/03/05 03:54:01;;;;;;;47.75;23.90;;;;;;;1.38;95.14;100515.22;5113693;28;20043;-75
2022/03/05 03:56:29;;;;;;;46.25;24.35;;;;;;;1.50;94.25;100515.88;5114144;28;20047;-75
2022/03/05 03:58:58;;;;;;;50.47;24.45;;;;;;;1.37;94.70;100520.53;5113739;28;20040;-73
2022/03/05 04:01:26;;;;;;;48.03;24.40;;;;;;;1.46;93.59;100517.72;5114318;28;20391;-73
2022/03/05 04:03:55;;;;;;;45.80;23.75;;;;;;;1.37;94.74;100517.88;5113642;28;20048;-74
2022/03/05 04:06:24;;;;;;;48.22;24.10;;;;;;;1.44;94.41;100514.22;5114385;28;20047;-74
2022/03/05 04:08:51;;;;;;;51.35;25.80;;;;;;;1.36;94.95;100519.66;5113628;28;20036;-74
2022/03/05 04:11:20;;;;;;;49.33;24.98;;;;;;;1.16;96.94;100513.88;5113933;28;20069;-73
2022/03/05 04:13:49;;;;;;;49.90;25.35;;;;;;;1.26;96.45;100514.59;5113753;28;20071;-73
2022/03/05 04:16:17;;;;;;;53.50;26.58;;;;;;;1.27;97.26;100516.31;5114072;28;20127;-72
2022/03/05 04:18:45;;;;;;;49.78;25.20;;;;;;;1.39;96.59;100518.72;5113901;28;20465;-73
2022/03/05 04:21:13;;;;;;;48.50;24.83;;;;;;;1.41;95.62;100519.56;5114156;28;20057;-73
2022/03/05 04:23:43;;;;;;;52.55;25.38;;;;;;;1.34;95.90;100523.19;5113566;28;20511;-73
2022/03/05 04:26:11;;;;;;;54.67;26.10;;;;;;;1.36;96.01;100527.53;5113578;28;20047;-73
2022/03/05 04:28:39;;;;;;;51.63;24.52;;;;;;;1.43;95.38;100525.66;5113669;28;20048;-75
2022/03/05 04:31:10;;;;;;;49.20;24.88;;;;;;;1.25;95.57;100529.47;5113597;28;20036;-76
2022/03/05 04:33:38;;;;;;;53.33;27.08;;;;;;;1.33;95.28;100531.97;5113878;28;20043;-75
2022/03/05 04:36:07;;;;;;;47.05;25.17;;;;;;;1.39;94.66;100532.72;5113628;28;20126;-74
2022/03/05 04:38:35;;;;;;;48.45;25.48;;;;;;;1.39;94.46;100529.25;5113471;28;20104;-74
2022/03/05 04:41:05;;;;;;;49.55;25.85;;;;;;;1.40;94.51;100534.47;5113183;28;20499;-74
2022/03/05 04:43:34;;;;;;;47.72;25.15;;;;;;;1.37;93.94;100534.53;5113519;28;20123;-73
2022/03/05 04:46:02;;;;;;;49.72;25.30;;;;;;;1.40;94.39;100537.09;5113485;28;20044;-73
2022/03/05 04:48:31;;;;;;;52.85;26.30;;;;;;;1.43;94.19;100539.66;5113631;28;20049;-73
2022/03/05 04:50:59;;;;;;;49.45;24.77;;;;;;;1.37;93.73;100536.28;5113217;28;20039;-77
2022/03/05 04:53:27;;;;;;;47.58;24.33;;;;;;;1.54;93.05;100539.44;5113491;28;20043;-76
2022/03/05 04:55:56;;;;;;;51.78;26.40;;;;;;;1.38;93.97;100540.66;5113286;28;20050;-77
2022/03/05 04:58:25;;;;;;;50.08;26.27;;;;;;;1.41;93.14;100538.81;5113590;28;20400;-77
2022/03/05 05:00:53;;;;;;;49.72;25.17;;;;;;;1.46;92.48;100533.50;5112909;28;20040;-80
2022/03/05 05:03:22;;;;;;;49.17;23.95;;;;;;;1.55;91.13;100541.22;5113194;28;20093;-76
2022/03/05 05:05:50;;;;;;;49.28;23.45;;;;;;;1.30;92.10;100545.16;5113274;28;20044;-77
2022/03/05 05:08:19;;;;;;;47.25;24.60;;;;;;;1.41;91.90;100537.97;5113304;28;20039;-76
2022/03/05 05:10:47;;;;;;;50.95;24.73;;;;;;;1.38;92.12;100532.75;5112940;28;20093;-77
2022/03/05 05:13:16;;;;;;;50.72;25.73;;;;;;;1.22;93.14;100541.81;5095109;28;20063;-74
2022/03/05 05:15:46;;;;;;;46.03;23.13;;;;;;;1.40;92.57;100538.84;5113374;28;20472;-74
2022/03/05 05:18:14;;;;;;;46.25;23.85;;;;;;;1.37;92.21;100546.81;5112810;28;20061;-75
2022/03/05 05:20:43;;;;;;;46.40;24.08;;;;;;;1.29;92.42;100549.56;5097259;28;20503;-74
2022/03/05 05:23:11;;;;;;;44.38;23.45;;;;;;;1.35;92.11;100549.47;5117048;28;20064;-75
2022/03/05 05:25:39;;;;;;;45.83;23.05;;;;;;;1.17;92.71;100551.53;5116915;28;20431;-75
2022/03/05 05:28:07;;;;;;;45.20;23.67;;;;;;;1.06;93.07;100549.06;5117113;28;20473;-75
2022/03/05 05:30:36;;;;;;;43.13;22.38;;;;;;;1.29;90.45;100561.84;5117084;28;20048;-76
2022/03/05 05:33:05;;;;;;;42.20;22.73;;;;;;;1.25;90.77;100555.75;5116606;28;20477;-73
2022/03/05 05:35:34;;;;;;;42.85;21.25;;;;;;;1.24;90.93;100564.53;5116888;28;20442;-74
2022/03/05 05:38:02;;;;;;;40.05;20.73;;;;;;;1.25;90.13;100561.00;5116783;28;20118;-75
2022/03/05 05:40:31;;;;;;;45.70;20.95;;;;;;;1.63;87.23;100562.94;5116938;28;20464;-76
2022/03/05 05:43:00;;;;;;;37.47;20.05;;;;;;;1.47;86.40;100565.91;5116766;28;20067;-76
2022/03/05 05:45:28;;;;;;;36.97;19.27;;;;;;;1.50;85.88;100569.34;5116937;28;20063;-75
2022/03/05 05:47:58;;;;;;;33.88;17.63;;;;;;;1.41;84.50;100567.72;5116594;28;20382;-74
2022/03/05 05:50:27;;;;;;;35.58;18.58;;;;;;;1.48;83.17;100573.75;5116707;28;20092;-74
2022/03/05 05:52:56;;;;;;;34.78;17.90;;;;;;;1.48;82.72;100579.03;5116869;28;20123;-75
2022/03/05 05:55:24;;;;;;;36.33;19.33;;;;;;;1.49;81.85;100578.13;5116929;28;20393;-73
2022/03/05 05:57:53;;;;;;;33.60;17.55;;;;;;;1.42;82.58;100579.13;5116389;28;20488;-74
2022/03/05 06:00:21;;;;;;;32.33;17.95;;;;;;;1.61;80.93;100583.16;5116040;28;20051;-74
2022/03/05 06:02:49;;;;;;;33.45;17.20;;;;;;;1.47;81.73;100585.19;5116314;28;20404;-74
2022/03/05 06:05:17;;;;;;;36.95;18.83;;;;;;;1.63;81.11;100583.13;5116196;28;20043;-74
2022/03/05 06:07:47;;;;;;;36.25;18.38;;;;;;;1.55;81.25;100590.31;5116581;28;20038;-76
2022/03/05 06:10:15;;;;;;;34.90;19.23;;;;;;;1.68;80.92;100581.28;5116047;28;20039;-76
2022/03/05 06:12:44;;;;;;;37.47;18.48;;;;;;;1.77;79.60;100590.75;5116421;28;20040;-76
2022/03/05 06:15:13;;;;;;;35.17;18.63;;;;;;;1.61;81.18;100593.66;5116001;28;20067;-77
2022/03/05 06:17:42;;;;;;;33.70;18.42;;;;;;;1.78;79.80;100592.50;5116337;28;20049;-76
2022/03/05 06:20:11;;;;;;;36.60;18.92;;;;;;;1.80;79.16;100596.81;5115762;28;20052;-73
2022/03/05 06:22:42;;;;;;;33.65;17.40;;;;;;;1.82;77.83;100596.78;5116351;28;20082;-74
2022/03/05 06:25:12;;;;;;;33.92;16.55;;;;;;;1.81;78.27;100597.69;5116032;28;20044;-72
2022/03/05 06:27:41;;;;;;;29.10;15.93;;;;;;;1.83;77.49;100599.38;5115865;28;20043;-75
2022/03/05 06:30:10;;;;;;;34.90;17.73;;;;;;;1.81;78.29;100600.31;5115783;28;20067;-77
2022/03/05 06:32:38;;;;;;;34.13;17.13;;;;;;;1.97;76.20;100604.41;5114745;28;20417;-74
2022/03/05 06:35:08;;;;;;;31.27;16.58;;;;;;;2.13;74.87;100604.97;5115435;28;20040;-75
2022/03/05 06:37:39;;;;;;;35.13;17.85;;;;;;;2.07;75.50;100611.22;5115985;28;20054;-73
2022/03/05 06:40:11;;;;;;;;;;;;;;;2.15;74.89;100606.69;5116041;28;20086;-76
2022/03/05 06:42:41;;;;;;;32.35;16.17;;;;;;;2.07;75.41;100605.09;5097829;28;19919;-76
2022/03/05 06:45:10;;;;;;;33.08;17.50;;;;;;;2.11;75.11;100612.88;5115828;28;20050;-76
2022/03/05 06:47:39;;;;;;;30.30;16.25;;;;;;;2.16;74.13;100618.06;5115509;28;20042;-76
2022/03/05 06:50:09;;;;;;;30.08;15.93;;;;;;;2.26;73.13;100622.25;5115270;28;20134;-77
2022/03/05 06:52:38;;;;;;;28.60;15.38;;;;;;;2.12;73.44;100619.88;5115370;28;20130;-74
2022/03/05 06:55:08;;;;;;;30.88;15.95;;;;;;;2.15;73.74;100622.47;5115818;28;20549;-73
2022/03/05 06:57:36;;;;;;;30.58;15.45;;;;;;;2.12;72.73;100619.88;5115713;28;20135;-73
2022/03/05 07:00:08;;;;;;;29.30;15.85;;;;;;;2.33;72.40;100623.00;5114989;28;20055;-74
2022/03/05 07:02:36;;;;;;;29.35;14.82;;;;;;;2.26;72.39;100617.84;5115794;28;20109;-72
2022/03/05 07:05:05;;;;;;;29.42;14.30;;;;;;;2.18;73.08;100618.91;5115340;28;20035;-74
2022/03/05 07:07:34;;;;;;;29.70;14.32;;;;;;;2.17;72.36;100617.16;5115387;28;20465;-74
2022/03/05 07:10:02;;;;;;;28.85;14.73;;;;;;;2.23;73.12;100623.19;5115032;28;20042;-77
2022/03/05 07:12:31;;;;;;;24.17;13.65;;;;;;;2.34;72.45;100628.22;5115234;28;20075;-75
2022/03/05 07:15:07;;;;;;;29.15;14.82;;;;;;;2.34;72.27;100624.72;5114614;28;20500;-73
2022/03/05 07:17:35;;;;;;;25.48;14.07;;;;;;;2.42;71.82;100622.81;5115146;28;20118;-73
2022/03/05 07:20:05;;;;;;;28.30;14.30;;;;;;;2.48;71.41;100623.53;5114237;28;20104;-76
2022/03/05 07:22:33;;;;;;;28.90;14.77;;;;;;;2.44;71.84;100629.78;5114634;28;20044;-72
2022/03/05 07:25:02;;;;;;;28.48;14.40;;;;;;;2.30;72.87;100635.28;5114924;28;20126;-73
2022/03/05 07:27:30;;;;;;;25.05;13.27;;;;;;;2.51;72.26;100627.84;5096755;28;20047;-75
2022/03/05 07:29:59;;;;;;;24.85;13.85;;;;;;;2.45;72.73;100630.63;5101076;28;20493;-75
2022/03/05 07:32:29;;;;;;;25.63;13.57;;;;;;;2.53;72.37;100623.44;5109218;28;20398;-77
2022/03/05 07:34:57;;;;;;;27.90;13.35;;;;;;;2.60;72.25;100622.38;5114222;28;20053;-76
2022/03/05 07:37:27;;;;;;;27.52;13.57;;;;;;;2.61;71.89;100613.63;5114227;28;20051;-76
2022/03/05 07:39:55;;;;;;;25.67;13.48;;;;;;;2.63;72.22;100632.88;5114383;28;20039;-75
2022/03/05 07:42:24;;;;;;;25.58;12.98;;;;;;;2.58;73.13;100630.31;5113543;28;20044;-74
2022/03/05 07:44:52;;;;;;;23.30;12.23;;;;;;;2.67;72.55;100626.63;5114206;28;20071;-74
2022/03/05 07:47:20;;;;;;;24.48;11.68;;;;;;;2.59;72.79;100632.06;5119583;28;20116;-76
2022/03/05 07:49:50;;;;;;;22.92;11.95;;;;;;;2.73;71.71;100639.69;5114124;28;20047;-77
2022/03/05 07:52:18;;;;;;;23.65;12.35;;;;;;;2.61;72.13;100641.72;5113691;28;20070;-78
2022/03/05 07:54:46;;;;;;;22.05;10.65;;;;;;;2.50;74.46;100636.66;5113794;28;20040;-76
2022/03/05 07:57:17;;;;;;;20.25;10.85;;;;;;;2.44;75.60;100642.06;5114022;28;20043;-77
2022/03/05 07:59:45;;;;;;;23.60;10.90;;;;;;;2.56;75.25;100647.94;5113966;28;20062;-79
2022/03/05 08:02:31;;;;;;;23.40;10.73;;;;;;;2.66;74.99;100648.59;5114324;28;20534;-76
2022/03/05 08:05:01;;;;;;;22.75;11.52;;;;;;;2.64;74.62;100646.91;5114254;28;20040;-76
2022/03/05 08:07:31;;;;;;;22.00;11.48;;;;;;;2.75;73.89;100652.81;5113906;28;20063;-76
2022/03/05 08:09:59;;;;;;;24.42;12.20;;;;;;;2.80;74.02;100649.19;5113824;28;20047;-74
2022/03/05 08:12:30;;;;;;;23.23;12.55;;;;;;;2.91;73.51;100650.72;5113758;28;20104;-76
2022/03/05 08:14:58;;;;;;;22.88;12.48;;;;;;;2.70;73.96;100645.03;5114287;28;20063;-77
2022/03/05 08:17:26;;;;;;;23.58;11.43;;;;;;;2.77;74.27;100651.88;5113422;28;20040;-74
2022/03/05 08:19:55;;;;;;;23.17;12.07;;;;;;;2.80;73.54;100651.81;5113602;28;20147;-75
2022/03/05 08:22:25;;;;;;;26.38;13.48;;;;;;;2.85;74.26;100651.72;5113177;28;20510;-73
2022/03/05 08:24:54;;;;;;;25.38;13.88;;;;;;;2.94;73.90;100655.91;5113933;28;20050;-77
2022/03/05 08:27:23;;;;;;;21.90;11.98;;;;;;;3.03;73.34;100650.44;5113558;28;20480;-74
2022/03/05 08:29:52;;;;;;;25.13;12.18;;;;;;;3.12;72.98;100652.84;5113410;28;20487;-74
2022/03/05 08:32:20;;;;;;;20.25;11.75;;;;;;;3.32;71.50;100649.75;5113490;28;20423;-75
2022/03/05 08:34:48;;;;;;;27.00;12.70;;;;;;;3.30;71.49;100649.78;5113382;28;20050;-75
2022/03/05 08:37:17;;;;;;;22.02;12.00;;;;;;;3.54;71.23;100647.44;5113543;28;20039;-74
2022/03/05 08:39:46;;;;;;;23.50;12.60;;;;;;;3.66;70.30;100647.97;5113707;28;20118;-78
2022/03/05 08:42:14;;;;;;;22.60;12.10;;;;;;;3.85;69.36;100648.38;5113514;28;20043;-78
2022/03/05 08:44:43;;;;;;;21.50;11.38;;;;;;;4.01;68.07;100646.22;5113341;28;20451;-73
2022/03/05 08:47:11;;;;;;;20.40;10.95;;;;;;;3.94;68.43;100649.91;5113105;28;20039;-76
2022/03/05 08:49:40;;;;;;;22.55;11.15;;;;;;;4.17;67.09;100657.22;5113524;28;20077;-73
2022/03/05 08:52:09;;;;;;;23.63;11.57;;;;;;;4.10;66.86;100655.66;5113095;28;20067;-74
2022/03/05 08:54:37;;;;;;;19.35;10.82;;;;;;;4.44;65.64;100656.47;5112500;28;20101;-77
2022/03/05 08:57:08;;;;;;;19.55;10.27;;;;;;;4.25;64.68;100652.59;5113423;28;20124;-73
2022/03/05 08:59:37;;;;;;;18.33;10.43;;;;;;;4.38;63.53;100656.63;5113315;28;20119;-78
2022/03/05 09:02:06;;;;;;;18.20;9.88;;;;;;;4.59;62.74;100650.72;5094818;28;20086;-77
2022/03/05 09:04:35;;;;;;;19.55;9.68;;;;;;;4.68;61.02;100652.22;5113201;28;20043;-77
2022/03/05 09:07:04;;;;;;;17.30;9.70;;;;;;;4.43;61.93;100648.56;5113319;28;20047;-76
2022/03/05 09:09:35;;;;;;;21.88;11.27;;;;;;;4.76;61.82;100646.72;5094696;28;20040;-75
2022/03/05 09:12:05;;;;;;;23.83;12.38;;;;;;;4.98;61.18;100642.50;5113196;28;20385;-75
2022/03/05 09:14:35;;;;;;;20.13;11.23;;;;;;;4.96;60.56;100640.81;5112839;28;20044;-74
2022/03/05 09:17:04;;;;;;;21.45;12.00;;;;;;;5.02;60.18;100637.97;5112911;28;20085;-74
2022/03/05 09:19:33;;;;;;;20.90;11.77;;;;;;;5.20;59.17;100636.53;5112618;28;20060;-75
2022/03/05 09:22:01;;;;;;;20.58;12.13;;;;;;;5.12;58.58;100637.66;5113219;28;20051;-76
2022/03/05 09:24:29;;;;;;;22.95;10.90;;;;;;;5.29;57.35;100631.81;5094558;28;20048;-76
2022/03/05 09:26:57;;;;;;;16.60;9.10;;;;;;;5.30;55.51;100630.03;5113259;28;20430;-76
2022/03/05 09:29:26;;;;;;;15.70;9.63;;;;;;;5.27;56.36;100632.78;5094706;28;20046;-75
2022/03/05 09:31:56;;;;;;;17.95;9.70;;;;;;;4.99;56.38;100638.94;5112923;28;20036;-75
2022/03/05 09:34:24;;;;;;;16.40;8.90;;;;;;;5.10;54.02;100635.97;5113120;28;20500;-75
2022/03/05 09:36:52;;;;;;;17.15;9.40;;;;;;;5.05;53.99;100633.47;5112747;28;20485;-75
2022/03/05 09:39:21;;;;;;;18.52;8.70;;;;;;;5.19;53.12;100635.66;5112635;28;20047;-74
2022/03/05 09:41:49;;;;;;;15.18;7.75;;;;;;;4.85;53.47;100638.50;5112878;28;20040;-74
2022/03/05 09:44:17;;;;;;;15.52;8.23;;;;;;;4.92;53.08;100634.75;5095101;28;20464;-74
2022/03/05 09:46:47;;;;;;;18.40;9.27;;;;;;;4.94;53.86;100632.09;5113143;28;20477;-75
2022/03/05 09:49:17;;;;;;;19.55;10.25;;;;;;;5.07;54.16;100630.78;5112933;28;20036;-76
2022/03/05 09:51:45;;;;;;;15.65;9.27;;;;;;;5.04;53.13;100636.16;5112948;28;20039;-75
2022/03/05 09:54:13;;;;;;;16.13;9.30;;;;;;;5.12;52.92;100628.88;5112943;28;20043;-75
2022/03/05 09:56:42;;;;;;;16.10;8.65;;;;;;;5.38;52.20;100626.22;5113103;28;20071;-74
2022/03/05 09:59:10;;;;;;;18.10;9.80;;;;;;;5.19;51.80;100630.38;5112924;28;20035;-75
2022/03/05 10:01:40;;;;;;;17.42;9.85;;;;;;;5.11;52.31;100627.97;5112704;28;20040;-74
2022/03/05 10:04:21;;;;;;;17.52;9.82;;;;;;;5.24;51.08;100625.81;5113048;28;20046;-75
2022/03/05 10:07:09;;;;;;;18.73;9.68;;;;;;;5.26;51.17;100623.13;5115321;28;20052;-74
2022/03/05 10:09:38;;;;;;;19.25;9.43;;;;;;;5.24;50.56;100628.47;5116196;28;20499;-73
2022/03/05 10:12:28;;;;;;;20.00;9.93;;;;;;;5.50;50.16;100624.06;5098024;28;20050;-74
2022/03/05 10:15:09;;;;;;;19.70;9.95;;;;;;;5.63;49.50;100625.41;5116503;28;20062;-74
2022/03/05 10:17:52;;;;;;;18.88;9.75;;;;;;;5.38;49.27;100630.66;5116410;28;20044;-74
2022/03/05 10:20:22;;;;;;;15.43;8.70;;;;;;;5.43;49.21;100626.09;5116424;28;20108;-74
2022/03/05 10:22:55;;;;;;;19.33;10.45;;;;;;;5.46;49.37;100633.91;5098112;28;20055;-73
2022/03/05 10:25:35;;;;;;;16.63;8.65;;;;;;;5.29;49.79;100623.00;5116232;28;20460;-73
2022/03/05 10:28:08;;;;;;;17.10;8.95;;;;;;;5.40;49.69;100618.22;5115733;28;20441;-73
2022/03/05 10:30:38;;;;;;;18.55;9.75;;;;;;;5.36;49.70;100620.13;5115515;28;20424;-72
2022/03/05 10:33:08;;;;;;;15.73;9.25;;;;;;;5.67;49.66;100617.31;5115882;28;20468;-73
2022/03/05 10:35:39;;;;;;;18.88;9.35;;;;;;;5.69;49.32;100625.19;5115245;28;20044;-72
2022/03/05 10:38:07;;;;;;;16.27;8.60;;;;;;;5.74;48.94;100623.25;5116089;28;20396;-74
2022/03/05 10:40:36;;;;;;;19.13;9.07;;;;;;;5.61;49.62;100619.31;5115561;28;20131;-74
2022/03/05 10:43:07;;;;;;;20.35;9.60;;;;;;;5.61;49.34;100617.53;5115854;28;20073;-74
2022/03/05 10:45:53;;;;;;;17.05;9.07;;;;;;;5.81;48.76;100618.63;5113035;28;20064;-70
2022/03/05 10:48:27;;;;;;;15.65;8.65;;;;;;;5.48;48.55;100626.78;5110567;28;20044;-68
2022/03/05 10:51:12;;;;;;;17.90;9.52;;;;;;;5.61;48.87;100617.53;5115519;28;20043;-70
2022/03/05 10:53:43;;;;;;;16.02;9.02;;;;;;;5.76;48.72;100621.41;5115181;28;20215;-68
2022/03/05 10:56:32;;;;;;;19.58;9.02;;;;;;;5.55;48.65;100617.72;5111863;28;20141;-71
2022/03/05 10:59:05;;;;;;;16.65;9.43;;;;;;;5.63;49.20;100620.97;5094616;28;20111;-68
2022/03/05 11:01:36;;;;;;;17.90;9.13;;;;;;;5.49;49.79;100617.91;5114079;28;20035;-68
2022/03/05 11:04:10;;;;;;;16.60;9.40;;;;;;;5.72;48.97;100615.38;5113898;28;20044;-69
2022/03/05 11:06:41;;;;;;;20.90;10.43;;;;;;;5.83;48.52;100608.84;5113647;28;20044;-68
2022/03/05 11:09:11;;;;;;;16.85;8.98;;;;;;;5.88;48.69;100612.19;5095882;28;20100;-68
2022/03/05 11:11:41;;;;;;;16.45;8.80;;;;;;;5.78;48.57;100606.34;5113432;28;20059;-69
2022/03/05 11:14:13;;;;;;;16.42;9.07;;;;;;;5.94;47.51;100604.94;5113705;28;20422;-70
2022/03/05 11:16:43;;;;;;;14.82;8.48;;;;;;;5.96;46.41;100612.81;5113157;28;20050;-71
2022/03/05 11:19:11;;;;;;;14.93;7.90;;;;;;;5.91;46.82;100605.06;5112679;28;20043;-73
2022/03/05 11:21:41;;;;;;;15.50;7.95;;;;;;;5.88;47.03;100602.44;5113957;28;20396;-71
2022/03/05 11:24:14;;;;;;;15.10;7.75;;;;;;;6.03;46.63;100601.94;5113801;28;20047;-71
2022/03/05 11:26:47;;;;;;;16.73;7.97;;;;;;;5.83;46.48;100596.47;5112787;28;20089;-71
2022/03/05 11:29:30;;;;;;;13.70;7.38;;;;;;;6.06;45.92;100598.31;5095186;28;20105;-69